createdAt,value
2022-12-13T00:02:26.036Z,19.50
2022-12-13T00:04:54.874Z,20.10
2022-12-13T00:07:23.542Z,16.10
2022-12-13T00:09:52.287Z,14.00
2022-12-13T00:12:20.998Z,14.20
2022-12-13T00:14:49.723Z,13.80
2022-12-13T00:17:18.489Z,14.80
2022-12-13T00:19:48.494Z,14.40
2022-12-13T00:22:17.169Z,14.20
2022-12-13T00:24:46.200Z,14.40
2022-12-13T00:27:15.068Z,14.80
2022-12-13T00:29:43.771Z,16.00
2022-12-13T00:32:12.567Z,15.10
2022-12-13T00:34:41.566Z,14.10
2022-12-13T00:37:10.293Z,13.00
2022-12-13T00:39:39.157Z,11.00
2022-12-13T00:42:07.895Z,11.30
2022-12-13T00:44:36.658Z,11.20
2022-12-13T00:47:05.422Z,11.80
2022-12-13T00:49:34.150Z,12.10
2022-12-13T00:52:02.966Z,12.10
2022-12-13T00:54:31.639Z,10.50
2022-12-13T00:57:00.372Z,11.80
2022-12-13T00:59:29.241Z,11.00
2022-12-13T01:01:58.380Z,10.70
2022-12-13T01:04:27.171Z,11.30
2022-12-13T01:06:56.013Z,11.30
2022-12-13T01:09:29.774Z,10.80
2022-12-13T01:12:05.563Z,10.30
2022-12-13T01:14:40.793Z,10.30
2022-12-13T01:17:10.217Z,8.90
2022-12-13T01:19:39.047Z,9.50
2022-12-13T01:22:08.268Z,8.90
2022-12-13T01:24:38.668Z,9.70
2022-12-13T01:27:07.397Z,9.20
2022-12-13T01:29:36.303Z,9.10
2022-12-13T01:32:05.519Z,9.10
2022-12-13T01:34:34.221Z,9.70
2022-12-13T01:37:02.956Z,9.40
2022-12-13T01:39:31.728Z,9.40
2022-12-13T01:42:07.118Z,9.20
2022-12-13T01:45:22.441Z,10.00
2022-12-13T01:47:58.513Z,9.80
2022-12-13T01:50:44.981Z,9.60
2022-12-13T01:53:19.553Z,11.10
2022-12-13T01:56:00.916Z,10.30
2022-12-13T01:58:30.427Z,11.80
2022-12-13T02:01:00.857Z,12.40
2022-12-13T02:03:30.061Z,13.60
2022-12-13T02:06:07.595Z,11.40
2022-12-13T02:08:38.986Z,12.70
2022-12-13T02:11:08.806Z,11.60
2022-12-13T02:13:40.562Z,11.60
2022-12-13T02:16:21.962Z,10.60
2022-12-13T02:19:27.688Z,9.20
2022-12-13T02:22:31.060Z,9.30
2022-12-13T02:25:40.829Z,10.70
2022-12-13T02:28:44.718Z,8.60
2022-12-13T02:31:23.731Z,13.00
2022-12-13T02:34:05.629Z,12.10
2022-12-13T02:37:01.742Z,9.30
2022-12-13T02:39:48.305Z,10.10
2022-12-13T02:42:54.064Z,9.80
2022-12-13T02:45:45.246Z,8.70
2022-12-13T02:48:19.750Z,8.30
2022-12-13T02:50:50.085Z,9.30
2022-12-13T02:53:24.363Z,10.40
2022-12-13T02:55:53.043Z,9.40
2022-12-13T02:58:34.634Z,10.40
2022-12-13T03:01:28.140Z,12.50
2022-12-13T03:04:26.724Z,13.10
2022-12-13T03:07:28.752Z,8.60
2022-12-13T03:10:09.211Z,8.00
2022-12-13T03:13:06.678Z,8.80
2022-12-13T03:15:43.185Z,8.40
2022-12-13T03:18:20.217Z,8.60
2022-12-13T03:21:03.477Z,8.30
2022-12-13T03:23:33.479Z,8.50
2022-12-13T03:26:11.262Z,8.30
2022-12-13T03:28:41.427Z,8.20
2022-12-13T03:31:10.395Z,7.80
2022-12-13T03:33:39.113Z,7.80
2022-12-13T03:36:10.806Z,8.10
2022-12-13T03:38:40.866Z,7.90
2022-12-13T03:41:16.212Z,8.40
2022-12-13T03:43:45.543Z,9.10
2022-12-13T03:46:14.241Z,7.70
2022-12-13T03:48:43.016Z,8.40
2022-12-13T03:51:11.741Z,6.80
2022-12-13T03:53:40.506Z,8.00
2022-12-13T03:56:09.236Z,13.10
2022-12-13T03:58:38.580Z,9.00
2022-12-13T04:01:11.121Z,8.50
2022-12-13T04:03:42.748Z,7.70
2022-12-13T04:06:13.027Z,8.90
2022-12-13T04:08:52.964Z,11.70
2022-12-13T04:11:42.601Z,11.00
2022-12-13T04:14:12.137Z,10.80
2022-12-13T04:16:40.799Z,10.60
2022-12-13T04:19:09.504Z,7.50
2022-12-13T04:21:38.183Z,8.00
2022-12-13T04:24:07.055Z,7.90
2022-12-13T04:26:35.779Z,7.60
2022-12-13T04:29:04.445Z,8.30
2022-12-13T04:31:33.143Z,7.00
2022-12-13T04:34:01.878Z,8.90
2022-12-13T04:36:32.831Z,7.00
2022-12-13T04:39:03.219Z,7.40
2022-12-13T04:41:39.341Z,6.70
2022-12-13T04:44:28.852Z,6.40
2022-12-13T04:47:00.953Z,5.90
2022-12-13T04:49:31.475Z,6.90
2022-12-13T04:52:02.581Z,6.40
2022-12-13T04:54:36.560Z,7.20
2022-12-13T04:57:11.777Z,7.00
2022-12-13T04:59:40.792Z,6.40
2022-12-13T05:02:10.759Z,6.90
2022-12-13T05:04:39.578Z,7.20
2022-12-13T05:07:08.565Z,6.60
2022-12-13T05:09:37.364Z,6.20
2022-12-13T05:12:22.084Z,6.40
2022-12-13T05:14:53.341Z,7.70
2022-12-13T05:17:22.717Z,6.20
2022-12-13T05:19:51.607Z,6.30
2022-12-13T05:22:21.282Z,6.50
2022-12-13T05:24:51.158Z,5.90
2022-12-13T05:27:24.426Z,6.90
2022-12-13T05:30:02.785Z,6.50
2022-12-13T05:32:43.871Z,7.80
2022-12-13T05:35:23.213Z,7.80
2022-12-13T05:37:53.382Z,8.20
2022-12-13T05:40:26.788Z,7.80
2022-12-13T05:43:01.423Z,9.20
2022-12-13T05:45:32.747Z,7.90
2022-12-13T05:48:01.969Z,7.10
2022-12-13T05:50:31.590Z,6.40
2022-12-13T05:53:00.594Z,6.70
2022-12-13T05:55:29.391Z,7.90
2022-12-13T05:58:02.323Z,6.70
2022-12-13T06:00:31.623Z,9.90
2022-12-13T06:03:01.934Z,9.80
2022-12-13T06:05:31.653Z,8.40
2022-12-13T06:08:01.090Z,8.80
2022-12-13T06:10:34.108Z,8.20
2022-12-13T06:13:21.472Z,9.50
2022-12-13T06:16:01.508Z,9.80
2022-12-13T06:18:33.413Z,11.50
2022-12-13T06:21:07.092Z,10.30
2022-12-13T06:23:36.772Z,10.70
2022-12-13T06:26:07.914Z,10.10
2022-12-13T06:28:36.685Z,9.00
2022-12-13T06:31:05.640Z,8.80
2022-12-13T06:33:36.763Z,9.70
2022-12-13T06:36:06.268Z,10.80
2022-12-13T06:38:35.083Z,9.70
2022-12-13T06:41:17.362Z,12.20
2022-12-13T06:43:47.833Z,11.40
2022-12-13T06:46:16.758Z,13.60
2022-12-13T06:48:45.981Z,15.20
2022-12-13T06:51:22.477Z,12.80
2022-12-13T06:53:53.391Z,13.50
2022-12-13T06:56:22.773Z,12.10
2022-12-13T06:58:52.063Z,12.80
2022-12-13T07:01:24.178Z,12.50
2022-12-13T07:03:57.864Z,12.60
2022-12-13T07:06:27.112Z,13.20
2022-12-13T07:08:58.205Z,15.60
2022-12-13T07:11:30.052Z,13.80
2022-12-13T07:14:00.155Z,15.80
2022-12-13T07:16:29.267Z,18.10
2022-12-13T07:19:01.668Z,16.10
2022-12-13T07:21:31.413Z,12.50
2022-12-13T07:24:01.382Z,14.10
2022-12-13T07:26:30.221Z,18.50
2022-12-13T07:28:58.945Z,18.10
2022-12-13T07:31:27.712Z,18.50
2022-12-13T07:33:56.508Z,16.60
2022-12-13T07:36:25.303Z,16.30
2022-12-13T07:38:57.292Z,16.30
2022-12-13T07:41:27.201Z,14.90
2022-12-13T07:43:56.587Z,17.40
2022-12-13T07:46:33.051Z,25.60
2022-12-13T07:49:03.717Z,19.70
2022-12-13T07:51:35.627Z,20.30
2022-12-13T07:54:06.879Z,18.30
2022-12-13T07:56:36.669Z,18.30
2022-12-13T07:59:05.873Z,20.40
2022-12-13T08:01:35.149Z,21.90
2022-12-13T08:04:05.014Z,24.50
2022-12-13T08:06:38.469Z,25.80
2022-12-13T08:09:07.306Z,18.90
2022-12-13T08:11:36.186Z,22.00
2022-12-13T08:14:05.297Z,28.50
2022-12-13T08:16:34.097Z,24.90
2022-12-13T08:19:04.500Z,22.60
2022-12-13T08:21:58.838Z,20.60
2022-12-13T08:24:31.799Z,25.40
2022-12-13T08:27:02.914Z,20.40
2022-12-13T08:29:35.996Z,17.50
2022-12-13T08:32:09.592Z,23.50
2022-12-13T08:34:39.784Z,20.70
2022-12-13T08:37:08.769Z,18.90
2022-12-13T08:39:39.352Z,25.20
2022-12-13T08:42:16.099Z,19.00
2022-12-13T08:44:52.267Z,20.50
2022-12-13T08:47:26.721Z,20.90
2022-12-13T08:50:02.572Z,22.00
2022-12-13T08:52:39.311Z,38.50
2022-12-13T08:55:12.413Z,29.90
2022-12-13T08:57:43.851Z,24.00
2022-12-13T09:00:19.458Z,22.20
2022-12-13T09:02:48.489Z,29.20
2022-12-13T09:05:33.764Z,25.60
2022-12-13T09:08:22.889Z,33.90
2022-12-13T09:11:11.492Z,26.70
2022-12-13T09:13:50.566Z,33.60
2022-12-13T09:16:24.613Z,33.70
2022-12-13T09:18:54.924Z,23.00
2022-12-13T09:21:31.757Z,24.90
2022-12-13T09:24:02.302Z,24.50
2022-12-13T09:26:38.174Z,24.20
2022-12-13T09:29:10.611Z,26.90
2022-12-13T09:31:41.150Z,28.50
2022-12-13T09:34:11.535Z,28.00
2022-12-13T09:36:40.546Z,28.50
2022-12-13T09:39:11.921Z,23.10
2022-12-13T09:42:01.101Z,24.90
2022-12-13T09:44:43.599Z,21.00
2022-12-13T09:47:47.042Z,19.60
2022-12-13T09:50:37.813Z,20.50
2022-12-13T09:53:12.073Z,21.10
2022-12-13T09:55:52.445Z,22.50
2022-12-13T09:58:28.022Z,21.10
2022-12-13T10:00:59.206Z,21.30
2022-12-13T10:03:29.290Z,21.00
2022-12-13T10:06:31.580Z,20.30
2022-12-13T10:09:01.258Z,20.30
2022-12-13T10:11:31.911Z,22.60
2022-12-13T10:14:40.361Z,21.20
2022-12-13T10:17:16.340Z,24.10
2022-12-13T10:19:51.660Z,26.50
2022-12-13T10:22:25.004Z,30.20
2022-12-13T10:24:56.655Z,30.20
2022-12-13T10:27:43.915Z,26.40
2022-12-13T10:30:28.816Z,35.20
2022-12-13T10:33:05.045Z,31.70
2022-12-13T10:35:41.084Z,24.90
2022-12-13T10:38:16.742Z,27.40
2022-12-13T10:40:46.812Z,24.60
2022-12-13T10:43:18.848Z,22.40
2022-12-13T10:45:58.795Z,26.80
2022-12-13T10:48:40.222Z,24.40
2022-12-13T10:51:21.992Z,27.50
2022-12-13T10:53:56.313Z,31.00
2022-12-13T10:56:48.171Z,29.70
2022-12-13T10:59:49.783Z,31.00
2022-12-13T11:02:37.625Z,25.40
2022-12-13T11:05:24.682Z,23.60
2022-12-13T11:07:55.528Z,21.30
2022-12-13T11:10:30.190Z,23.60
2022-12-13T11:13:05.045Z,22.60
2022-12-13T11:15:38.372Z,20.40
2022-12-13T11:18:24.798Z,19.10
2022-12-13T11:21:00.435Z,19.30
2022-12-13T11:23:38.072Z,20.30
2022-12-13T11:26:17.492Z,19.50
2022-12-13T11:29:22.331Z,20.10
2022-12-13T11:32:46.074Z,23.10
2022-12-13T11:35:26.176Z,23.00
2022-12-13T11:38:31.445Z,23.50
2022-12-13T11:41:44.340Z,28.20
2022-12-13T11:44:23.584Z,21.30
2022-12-13T11:46:59.763Z,21.60
2022-12-13T11:49:45.978Z,21.40
2022-12-13T11:52:29.225Z,20.90
2022-12-13T11:55:18.346Z,21.40
2022-12-13T11:58:00.895Z,26.10
2022-12-13T12:01:04.452Z,23.00
2022-12-13T12:03:49.916Z,20.60
2022-12-13T12:06:25.818Z,21.50
2022-12-13T12:09:01.597Z,22.40
2022-12-13T12:11:46.346Z,24.80
2022-12-13T12:14:17.715Z,20.20
2022-12-13T12:16:54.188Z,22.80
2022-12-13T12:19:34.583Z,23.10
2022-12-13T12:22:52.899Z,22.30
2022-12-13T12:25:53.024Z,19.00
2022-12-13T12:29:16.580Z,17.60
2022-12-13T12:32:31.620Z,30.60
2022-12-13T12:35:29.968Z,24.60
2022-12-13T12:38:25.003Z,21.20
2022-12-13T12:41:31.691Z,19.00
2022-12-13T12:44:21.813Z,20.80
2022-12-13T12:47:31.898Z,22.80
2022-12-13T12:50:12.118Z,22.80
2022-12-13T12:53:08.462Z,23.80
2022-12-13T12:55:52.394Z,19.60
2022-12-13T12:58:39.564Z,21.10
2022-12-13T13:01:43.961Z,19.40
2022-12-13T13:04:22.499Z,22.10
2022-12-13T13:07:04.163Z,24.30
2022-12-13T13:09:55.216Z,22.80
2022-12-13T13:12:30.455Z,25.10
2022-12-13T13:15:00.822Z,24.80
2022-12-13T13:17:29.816Z,29.60
2022-12-13T13:20:31.064Z,28.60
2022-12-13T13:23:39.896Z,29.90
2022-12-13T13:26:35.873Z,26.10
2022-12-13T13:28:51.666Z,29.60
2022-12-13T13:31:20.558Z,33.10
2022-12-13T13:33:51.513Z,33.20
2022-12-13T13:36:39.069Z,38.40
2022-12-13T13:39:36.258Z,33.90
2022-12-13T13:42:13.981Z,33.30
2022-12-13T13:44:45.507Z,32.30
2022-12-13T13:47:34.914Z,33.20
2022-12-13T13:50:12.724Z,36.40
2022-12-13T13:52:44.222Z,30.20
2022-12-13T13:56:20.016Z,34.30
2022-12-13T13:59:18.105Z,30.80
2022-12-13T14:02:50.600Z,22.90
2022-12-13T14:05:57.629Z,29.50
2022-12-13T14:08:36.382Z,26.70
2022-12-13T14:11:46.661Z,39.30
2022-12-13T14:14:43.496Z,59.10
2022-12-13T14:17:53.966Z,34.70
2022-12-13T14:20:44.691Z,40.70
2022-12-13T14:23:52.169Z,57.20
2022-12-13T14:26:54.030Z,38.70
2022-12-13T14:29:48.093Z,43.10
2022-12-13T14:32:39.870Z,40.50
2022-12-13T14:35:30.943Z,51.70
2022-12-13T14:38:06.252Z,38.70
2022-12-13T14:40:50.737Z,33.60
2022-12-13T14:43:31.876Z,42.70
2022-12-13T14:46:05.039Z,52.10
2022-12-13T14:48:48.060Z,38.90
2022-12-13T14:51:39.545Z,36.70
2022-12-13T14:54:23.992Z,35.90
2022-12-13T14:57:02.342Z,41.80
2022-12-13T14:59:33.367Z,135.70
2022-12-13T15:02:05.586Z,60.90
2022-12-13T15:04:38.037Z,37.80
2022-12-13T15:07:37.125Z,40.80
2022-12-13T15:10:15.041Z,35.80
2022-12-13T15:12:45.766Z,35.00
2022-12-13T15:15:29.589Z,46.50
2022-12-13T15:18:06.674Z,38.20
2022-12-13T15:20:41.672Z,38.90
2022-12-13T15:23:48.751Z,34.40
2022-12-13T15:26:29.017Z,64.70
2022-12-13T15:29:09.424Z,38.60
2022-12-13T15:31:40.637Z,29.30
2022-12-13T15:34:33.956Z,41.70
2022-12-13T15:37:28.986Z,37.80
2022-12-13T15:40:07.383Z,38.40
2022-12-13T15:42:43.682Z,37.90
2022-12-13T15:45:36.606Z,36.00
2022-12-13T15:48:06.245Z,40.70
2022-12-13T15:50:43.864Z,43.00
2022-12-13T15:55:53.937Z,34.60
2022-12-13T15:58:32.268Z,37.40
2022-12-13T16:01:05.529Z,33.20
2022-12-13T16:03:44.649Z,34.10
2022-12-13T16:06:22.370Z,36.30
2022-12-13T16:08:57.232Z,36.20
2022-12-13T16:11:32.994Z,34.90
2022-12-13T16:14:49.602Z,38.40
2022-12-13T16:17:27.252Z,39.10
2022-12-13T16:20:07.697Z,40.30
2022-12-13T16:22:38.886Z,40.70
2022-12-13T16:25:19.446Z,34.60
2022-12-13T16:27:48.588Z,33.10
2022-12-13T16:30:27.875Z,33.90
2022-12-13T16:33:18.182Z,37.70
2022-12-13T16:35:45.511Z,57.30
2022-12-13T16:38:26.825Z,82.50
2022-12-13T16:41:00.825Z,89.10
2022-12-13T16:43:56.824Z,59.00
2022-12-13T16:47:16.708Z,43.70
2022-12-13T16:49:26.815Z,38.20
2022-12-13T16:51:57.187Z,49.50
2022-12-13T16:54:26.670Z,44.20
2022-12-13T16:56:56.441Z,47.40
2022-12-13T16:59:27.737Z,57.40
2022-12-13T17:01:56.493Z,46.40
2022-12-13T17:04:27.413Z,36.90
2022-12-13T17:06:56.590Z,37.70
2022-12-13T17:09:25.498Z,37.20
2022-12-13T17:11:54.545Z,35.60
2022-12-13T17:14:23.472Z,39.00
2022-12-13T17:16:56.008Z,41.10
2022-12-13T17:19:27.657Z,37.00
2022-12-13T17:21:56.454Z,35.20
2022-12-13T17:24:25.246Z,40.20
2022-12-13T17:26:56.791Z,39.40
2022-12-13T17:29:25.784Z,41.80
2022-12-13T17:31:54.886Z,45.20
2022-12-13T17:34:23.885Z,41.90
2022-12-13T17:36:52.819Z,40.20
2022-12-13T17:39:21.985Z,39.60
2022-12-13T17:41:54.376Z,50.50
2022-12-13T17:44:26.156Z,51.20
2022-12-13T17:46:55.746Z,47.20
2022-12-13T17:49:26.068Z,53.80
2022-12-13T17:51:55.258Z,49.50
2022-12-13T17:54:26.020Z,54.90
2022-12-13T17:56:55.280Z,55.40
2022-12-13T17:59:24.318Z,44.30
2022-12-13T18:01:53.653Z,46.90
2022-12-13T18:04:23.272Z,51.90
2022-12-13T18:06:52.492Z,48.60
2022-12-13T18:09:21.350Z,45.50
2022-12-13T18:11:50.269Z,42.40
2022-12-13T18:14:18.999Z,42.90
2022-12-13T18:16:47.865Z,43.00
2022-12-13T18:19:17.826Z,46.40
2022-12-13T18:21:48.281Z,40.90
2022-12-13T18:24:17.065Z,42.60
2022-12-13T18:26:46.017Z,56.40
2022-12-13T18:29:14.950Z,57.80
2022-12-13T18:31:44.256Z,51.10
2022-12-13T18:34:13.202Z,62.30
2022-12-13T18:36:42.060Z,47.90
2022-12-13T18:39:10.980Z,45.00
2022-12-13T18:41:40.397Z,46.80
2022-12-13T18:44:11.199Z,52.10
2022-12-13T18:46:44.766Z,68.90
2022-12-13T18:49:14.933Z,80.20
2022-12-13T18:51:43.749Z,90.50
2022-12-13T18:54:12.637Z,72.60
2022-12-13T18:56:44.190Z,85.70
2022-12-13T18:59:13.082Z,148.70
2022-12-13T19:01:42.226Z,68.00
2022-12-13T19:04:11.149Z,55.40
2022-12-13T19:06:39.897Z,49.10
2022-12-13T19:09:08.702Z,53.40
2022-12-13T19:11:37.561Z,56.30
2022-12-13T19:14:06.312Z,54.60
2022-12-13T19:16:35.569Z,57.80
2022-12-13T19:19:04.548Z,59.00
2022-12-13T19:21:33.667Z,64.70
2022-12-13T19:24:02.546Z,68.40
2022-12-13T19:26:32.549Z,86.40
2022-12-13T19:29:02.282Z,82.00
2022-12-13T19:31:32.675Z,77.60
2022-12-13T19:34:02.518Z,74.90
2022-12-13T19:36:32.896Z,72.90
2022-12-13T19:39:01.646Z,75.50
2022-12-13T19:41:32.380Z,73.70
2022-12-13T19:44:05.179Z,73.00
2022-12-13T19:46:34.376Z,73.60
2022-12-13T19:49:04.489Z,71.20
2022-12-13T19:51:39.102Z,70.00
2022-12-13T19:54:10.579Z,72.70
2022-12-13T19:56:39.400Z,71.50
2022-12-13T19:59:08.264Z,76.80
2022-12-13T20:01:38.444Z,85.80
2022-12-13T20:04:07.267Z,86.50
2022-12-13T20:06:36.364Z,97.90
2022-12-13T20:09:07.423Z,103.20
2022-12-13T20:11:36.649Z,107.10
2022-12-13T20:14:05.434Z,89.20
2022-12-13T20:16:34.385Z,80.80
2022-12-13T20:19:03.242Z,84.30
2022-12-13T20:21:32.016Z,85.70
2022-12-13T20:24:00.965Z,84.50
2022-12-13T20:26:31.930Z,89.20
2022-12-13T20:29:00.918Z,93.00
2022-12-13T20:31:34.613Z,91.50
2022-12-13T20:34:09.123Z,84.00
2022-12-13T20:36:37.921Z,66.80
2022-12-13T20:39:13.699Z,65.10
2022-12-13T20:41:42.529Z,52.70
2022-12-13T20:44:12.683Z,50.20
2022-12-13T20:46:41.741Z,46.60
2022-12-13T20:49:10.748Z,43.00
2022-12-13T20:51:41.738Z,44.30
2022-12-13T20:54:10.763Z,44.40
2022-12-13T20:56:40.248Z,40.60
2022-12-13T20:59:13.033Z,39.40
2022-12-13T21:01:44.795Z,43.00
2022-12-13T21:04:18.348Z,43.30
2022-12-13T21:06:47.195Z,44.30
2022-12-13T21:09:16.051Z,41.30
2022-12-13T21:11:48.172Z,39.30
2022-12-13T21:14:22.948Z,37.70
2022-12-13T21:16:57.221Z,41.00
2022-12-13T21:19:38.939Z,39.40
2022-12-13T21:22:08.649Z,34.50
2022-12-13T21:24:37.446Z,38.20
2022-12-13T21:27:07.904Z,33.90
2022-12-13T21:29:36.702Z,34.40
2022-12-13T21:32:06.345Z,35.70
2022-12-13T21:34:35.514Z,40.10
2022-12-13T21:37:05.305Z,40.20
2022-12-13T21:39:34.096Z,38.90
2022-12-13T21:42:05.968Z,42.50
2022-12-13T21:44:34.661Z,38.50
2022-12-13T21:47:13.603Z,35.30
2022-12-13T21:49:48.402Z,37.70
2022-12-13T21:52:18.536Z,36.40
2022-12-13T21:54:47.357Z,33.90
2022-12-13T21:57:34.681Z,34.90
2022-12-13T22:00:05.004Z,40.80
2022-12-13T22:02:42.055Z,35.10
2022-12-13T22:05:11.389Z,33.80
2022-12-13T22:07:40.197Z,34.70
2022-12-13T22:10:09.495Z,39.20
2022-12-13T22:12:41.350Z,38.00
2022-12-13T22:15:14.568Z,39.40
2022-12-13T22:17:43.536Z,35.30
2022-12-13T22:20:15.488Z,32.00
2022-12-13T22:22:45.131Z,32.80
2022-12-13T22:25:14.496Z,34.70
2022-12-13T22:27:43.317Z,31.00
2022-12-13T22:30:12.624Z,29.20
2022-12-13T22:32:42.430Z,26.70
2022-12-13T22:35:12.008Z,30.80
2022-12-13T22:37:40.694Z,29.70
2022-12-13T22:40:10.723Z,29.50
2022-12-13T22:42:39.360Z,31.30
2022-12-13T22:45:08.531Z,34.70
2022-12-13T22:47:37.197Z,32.30
2022-12-13T22:50:07.024Z,35.90
2022-12-13T22:52:35.779Z,34.50
2022-12-13T22:55:05.067Z,35.80
2022-12-13T22:57:33.829Z,34.30
2022-12-13T23:00:02.615Z,31.80
2022-12-13T23:02:31.805Z,28.90
2022-12-13T23:05:00.918Z,31.20
2022-12-13T23:07:29.607Z,33.30
2022-12-13T23:09:58.266Z,29.50
2022-12-13T23:12:45.485Z,31.00
2022-12-13T23:15:14.201Z,35.90
2022-12-13T23:17:42.913Z,34.20
2022-12-13T23:20:12.767Z,32.20
2022-12-13T23:22:41.497Z,33.80
2022-12-13T23:25:10.258Z,35.70
2022-12-13T23:27:39.124Z,35.10
2022-12-13T23:30:09.066Z,39.20
2022-12-13T23:32:37.774Z,34.00
2022-12-13T23:35:09.299Z,36.00
2022-12-13T23:37:38.634Z,36.80
2022-12-13T23:40:09.108Z,35.10
2022-12-13T23:42:37.840Z,33.00
2022-12-13T23:45:07.760Z,35.60
2022-12-13T23:47:36.422Z,34.70
2022-12-13T23:50:05.828Z,32.90
2022-12-13T23:52:34.613Z,33.10
2022-12-13T23:55:04.989Z,32.00
2022-12-13T23:57:33.772Z,31.50
